sensor_id;sensor_type;location;lat;lon;timestamp;temperature;humidity
9083;DHT22;4577;48.704;9.000;2022-09-09T00:02:21;16.90;62.70
9083;DHT22;4577;48.704;9.000;2022-09-09T00:07:45;16.90;62.40
9083;DHT22;4577;48.704;9.000;2022-09-09T00:10:28;17.00;62.50
9083;DHT22;4577;48.704;9.000;2022-09-09T00:15:55;17.10;61.10
9083;DHT22;4577;48.704;9.000;2022-09-09T00:18:45;16.80;61.50
9083;DHT22;4577;48.704;9.000;2022-09-09T00:21:14;16.90;61.80
9083;DHT22;4577;48.704;9.000;2022-09-09T00:23:51;17.00;61.30
9083;DHT22;4577;48.704;9.000;2022-09-09T00:26:38;16.90;61.20
9083;DHT22;4577;48.704;9.000;2022-09-09T00:31:38;16.50;61.40
9083;DHT22;4577;48.704;9.000;2022-09-09T00:34:14;16.90;61.70
9083;DHT22;4577;48.704;9.000;2022-09-09T00:39:37;16.90;61.50
9083;DHT22;4577;48.704;9.000;2022-09-09T00:42:17;17.00;61.20
9083;DHT22;4577;48.704;9.000;2022-09-09T00:47:53;16.90;61.30
9083;DHT22;4577;48.704;9.000;2022-09-09T01:01:03;16.60;62.20
9083;DHT22;4577;48.704;9.000;2022-09-09T01:03:44;16.80;62.70
9083;DHT22;4577;48.704;9.000;2022-09-09T01:06:16;16.90;62.20
9083;DHT22;4577;48.704;9.000;2022-09-09T01:12:16;17.00;61.50
9083;DHT22;4577;48.704;9.000;2022-09-09T01:14:48;16.90;61.00
9083;DHT22;4577;48.704;9.000;2022-09-09T01:19:54;16.80;61.80
9083;DHT22;4577;48.704;9.000;2022-09-09T01:22:37;16.70;62.10
9083;DHT22;4577;48.704;9.000;2022-09-09T01:28:04;16.70;61.70
9083;DHT22;4577;48.704;9.000;2022-09-09T01:30:31;16.90;62.00
9083;DHT22;4577;48.704;9.000;2022-09-09T01:32:59;16.80;61.40
9083;DHT22;4577;48.704;9.000;2022-09-09T01:35:40;16.80;61.80
9083;DHT22;4577;48.704;9.000;2022-09-09T01:48:15;16.40;63.30
9083;DHT22;4577;48.704;9.000;2022-09-09T01:55:39;16.40;63.50
9083;DHT22;4577;48.704;9.000;2022-09-09T02:03:57;16.70;63.50
9083;DHT22;4577;48.704;9.000;2022-09-09T02:06:32;16.60;63.60
9083;DHT22;4577;48.704;9.000;2022-09-09T02:09:02;16.60;63.70
9083;DHT22;4577;48.704;9.000;2022-09-09T02:11:30;16.50;64.30
9083;DHT22;4577;48.704;9.000;2022-09-09T02:14:12;16.50;64.30
9083;DHT22;4577;48.704;9.000;2022-09-09T02:19:11;16.70;64.20
9083;DHT22;4577;48.704;9.000;2022-09-09T02:21:40;16.70;63.80
9083;DHT22;4577;48.704;9.000;2022-09-09T02:24:08;16.60;63.30
9083;DHT22;4577;48.704;9.000;2022-09-09T02:26:39;16.60;63.90
9083;DHT22;4577;48.704;9.000;2022-09-09T02:29:10;16.60;63.60
9083;DHT22;4577;48.704;9.000;2022-09-09T02:34:05;16.70;63.00
9083;DHT22;4577;48.704;9.000;2022-09-09T02:36:33;16.40;63.20
9083;DHT22;4577;48.704;9.000;2022-09-09T02:39:00;16.40;63.90
9083;DHT22;4577;48.704;9.000;2022-09-09T02:41:33;16.50;63.80
9083;DHT22;4577;48.704;9.000;2022-09-09T02:43:59;16.40;63.90
9083;DHT22;4577;48.704;9.000;2022-09-09T02:49:10;16.40;64.10
9083;DHT22;4577;48.704;9.000;2022-09-09T02:54:27;16.60;63.40
9083;DHT22;4577;48.704;9.000;2022-09-09T02:57:06;16.60;63.80
9083;DHT22;4577;48.704;9.000;2022-09-09T02:59:35;18.10;65.00
9083;DHT22;4577;48.704;9.000;2022-09-09T03:19:03;16.30;64.50
9083;DHT22;4577;48.704;9.000;2022-09-09T03:26:22;16.40;64.20
9083;DHT22;4577;48.704;9.000;2022-09-09T03:43:27;16.20;65.30
9083;DHT22;4577;48.704;9.000;2022-09-09T03:48:23;16.20;64.70
9083;DHT22;4577;48.704;9.000;2022-09-09T03:50:51;16.20;64.70
9083;DHT22;4577;48.704;9.000;2022-09-09T03:53:19;16.20;65.20
9083;DHT22;4577;48.704;9.000;2022-09-09T03:55:50;16.10;65.10
9083;DHT22;4577;48.704;9.000;2022-09-09T03:58:18;15.90;65.30
9083;DHT22;4577;48.704;9.000;2022-09-09T04:00:59;16.20;65.70
9083;DHT22;4577;48.704;9.000;2022-09-09T04:05:51;16.20;65.10
9083;DHT22;4577;48.704;9.000;2022-09-09T04:08:18;16.20;65.30
9083;DHT22;4577;48.704;9.000;2022-09-09T04:10:48;16.10;65.20
9083;DHT22;4577;48.704;9.000;2022-09-09T04:13:16;16.10;65.40
9083;DHT22;4577;48.704;9.000;2022-09-09T04:27:55;16.10;65.60
9083;DHT22;4577;48.704;9.000;2022-09-09T04:30:22;16.10;65.50
9083;DHT22;4577;48.704;9.000;2022-09-09T04:40:06;15.90;65.70
9083;DHT22;4577;48.704;9.000;2022-09-09T04:42:36;16.00;65.70
9083;DHT22;4577;48.704;9.000;2022-09-09T05:06:59;16.00;66.20
9083;DHT22;4577;48.704;9.000;2022-09-09T05:16:45;16.10;66.10
9083;DHT22;4577;48.704;9.000;2022-09-09T05:36:20;16.20;66.10
9083;DHT22;4577;48.704;9.000;2022-09-09T05:41:13;16.20;66.30
9083;DHT22;4577;48.704;9.000;2022-09-09T05:46:11;16.10;67.00
9083;DHT22;4577;48.704;9.000;2022-09-09T05:48:39;16.20;66.60
9083;DHT22;4577;48.704;9.000;2022-09-09T05:51:07;16.20;66.40
9083;DHT22;4577;48.704;9.000;2022-09-09T05:56:05;16.20;66.50
9083;DHT22;4577;48.704;9.000;2022-09-09T05:58:34;16.20;66.40
9083;DHT22;4577;48.704;9.000;2022-09-09T06:01:02;16.60;67.20
9083;DHT22;4577;48.704;9.000;2022-09-09T06:03:28;16.30;66.70
9083;DHT22;4577;48.704;9.000;2022-09-09T06:06:00;16.20;66.60
9083;DHT22;4577;48.704;9.000;2022-09-09T06:10:53;16.30;67.10
9083;DHT22;4577;48.704;9.000;2022-09-09T06:15:51;16.20;67.40
9083;DHT22;4577;48.704;9.000;2022-09-09T06:18:18;16.20;67.30
9083;DHT22;4577;48.704;9.000;2022-09-09T06:20:54;16.30;67.20
9083;DHT22;4577;48.704;9.000;2022-09-09T06:23:19;16.30;67.50
9083;DHT22;4577;48.704;9.000;2022-09-09T06:25:46;16.40;67.20
9083;DHT22;4577;48.704;9.000;2022-09-09T06:28:11;16.40;67.40
9083;DHT22;4577;48.704;9.000;2022-09-09T06:30:39;16.50;67.50
9083;DHT22;4577;48.704;9.000;2022-09-09T06:33:05;16.50;67.40
9083;DHT22;4577;48.704;9.000;2022-09-09T06:40:24;16.60;67.60
9083;DHT22;4577;48.704;9.000;2022-09-09T06:42:50;16.60;67.70
9083;DHT22;4577;48.704;9.000;2022-09-09T06:47:43;16.50;67.60
9083;DHT22;4577;48.704;9.000;2022-09-09T06:55:03;16.60;67.80
9083;DHT22;4577;48.704;9.000;2022-09-09T07:02:21;16.40;68.70
9083;DHT22;4577;48.704;9.000;2022-09-09T07:09:40;16.50;68.70
9083;DHT22;4577;48.704;9.000;2022-09-09T07:12:06;16.60;68.80
9083;DHT22;4577;48.704;9.000;2022-09-09T07:14:32;16.40;68.30
9083;DHT22;4577;48.704;9.000;2022-09-09T07:19:25;16.40;68.60
9083;DHT22;4577;48.704;9.000;2022-09-09T07:24:17;16.90;68.80
9083;DHT22;4577;48.704;9.000;2022-09-09T07:26:43;17.00;68.40
9083;DHT22;4577;48.704;9.000;2022-09-09T07:29:09;17.10;68.40
9083;DHT22;4577;48.704;9.000;2022-09-09T07:31:39;17.20;68.70
9083;DHT22;4577;48.704;9.000;2022-09-09T07:36:33;17.00;68.80
9083;DHT22;4577;48.704;9.000;2022-09-09T07:39:10;17.10;68.50
9083;DHT22;4577;48.704;9.000;2022-09-09T07:44:10;16.80;70.10
9083;DHT22;4577;48.704;9.000;2022-09-09T07:49:04;17.10;68.90
9083;DHT22;4577;48.704;9.000;2022-09-09T07:51:33;17.10;68.70
9083;DHT22;4577;48.704;9.000;2022-09-09T07:54:05;17.20;68.60
9083;DHT22;4577;48.704;9.000;2022-09-09T07:56:31;17.30;68.50
9083;DHT22;4577;48.704;9.000;2022-09-09T07:58:58;17.40;68.30
9083;DHT22;4577;48.704;9.000;2022-09-09T08:01:29;17.60;68.30
9083;DHT22;4577;48.704;9.000;2022-09-09T08:06:25;17.40;68.30
9083;DHT22;4577;48.704;9.000;2022-09-09T08:08:52;17.40;68.20
9083;DHT22;4577;48.704;9.000;2022-09-09T08:11:18;17.40;68.40
9083;DHT22;4577;48.704;9.000;2022-09-09T08:16:17;17.50;67.60
9083;DHT22;4577;48.704;9.000;2022-09-09T08:21:15;17.80;67.90
9083;DHT22;4577;48.704;9.000;2022-09-09T08:23:44;17.90;68.60
9083;DHT22;4577;48.704;9.000;2022-09-09T08:26:12;17.60;68.40
9083;DHT22;4577;48.704;9.000;2022-09-09T08:28:39;17.70;67.80
9083;DHT22;4577;48.704;9.000;2022-09-09T08:31:13;17.70;68.30
9083;DHT22;4577;48.704;9.000;2022-09-09T08:33:40;17.80;68.10
9083;DHT22;4577;48.704;9.000;2022-09-09T08:36:08;17.60;68.00
9083;DHT22;4577;48.704;9.000;2022-09-09T08:38:35;17.70;67.80
9083;DHT22;4577;48.704;9.000;2022-09-09T08:43:46;17.90;68.00
9083;DHT22;4577;48.704;9.000;2022-09-09T08:46:32;18.10;67.10
9083;DHT22;4577;48.704;9.000;2022-09-09T08:49:13;18.20;66.50
9083;DHT22;4577;48.704;9.000;2022-09-09T08:54:09;18.30;65.90
9083;DHT22;4577;48.704;9.000;2022-09-09T08:56:35;18.20;66.20
9083;DHT22;4577;48.704;9.000;2022-09-09T08:59:02;18.30;66.50
9083;DHT22;4577;48.704;9.000;2022-09-09T09:07:39;17.80;67.60
9083;DHT22;4577;48.704;9.000;2022-09-09T09:15:27;17.60;59.40
9083;DHT22;4577;48.704;9.000;2022-09-09T09:23:25;17.30;61.30
9083;DHT22;4577;48.704;9.000;2022-09-09T09:25:59;17.10;62.70
9083;DHT22;4577;48.704;9.000;2022-09-09T09:28:30;17.10;63.70
9083;DHT22;4577;48.704;9.000;2022-09-09T09:31:03;17.20;66.10
9083;DHT22;4577;48.704;9.000;2022-09-09T09:36:07;17.40;68.80
9083;DHT22;4577;48.704;9.000;2022-09-09T09:43:35;17.70;70.40
9083;DHT22;4577;48.704;9.000;2022-09-09T09:46:03;17.70;70.10
9083;DHT22;4577;48.704;9.000;2022-09-09T09:48:30;17.80;68.90
9083;DHT22;4577;48.704;9.000;2022-09-09T09:51:02;17.80;68.90
9083;DHT22;4577;48.704;9.000;2022-09-09T09:53:33;17.90;67.80
9083;DHT22;4577;48.704;9.000;2022-09-09T09:56:02;18.00;67.70
9083;DHT22;4577;48.704;9.000;2022-09-09T09:58:31;17.90;67.20
9083;DHT22;4577;48.704;9.000;2022-09-09T10:01:00;17.90;67.90
9083;DHT22;4577;48.704;9.000;2022-09-09T10:19:04;18.60;65.70
9083;DHT22;4577;48.704;9.000;2022-09-09T10:21:54;18.80;64.10
9083;DHT22;4577;48.704;9.000;2022-09-09T10:30:22;18.40;62.40
9083;DHT22;4577;48.704;9.000;2022-09-09T10:35:44;18.80;60.30
9083;DHT22;4577;48.704;9.000;2022-09-09T10:38:23;18.90;60.70
9083;DHT22;4577;48.704;9.000;2022-09-09T10:46:23;19.30;59.50
9083;DHT22;4577;48.704;9.000;2022-09-09T10:54:44;19.80;59.10
9083;DHT22;4577;48.704;9.000;2022-09-09T11:00:19;19.70;53.40
9083;DHT22;4577;48.704;9.000;2022-09-09T11:03:13;19.50;54.00
9083;DHT22;4577;48.704;9.000;2022-09-09T11:05:46;19.40;52.90
9083;DHT22;4577;48.704;9.000;2022-09-09T11:16:40;18.60;54.90
9083;DHT22;4577;48.704;9.000;2022-09-09T11:19:36;16.70;71.70
9083;DHT22;4577;48.704;9.000;2022-09-09T11:50:34;16.70;71.40
9083;DHT22;4577;48.704;9.000;2022-09-09T12:00:40;17.00;66.90
9083;DHT22;4577;48.704;9.000;2022-09-09T12:03:39;17.30;67.10
9083;DHT22;4577;48.704;9.000;2022-09-09T12:06:29;17.50;66.30
9083;DHT22;4577;48.704;9.000;2022-09-09T12:11:33;18.00;62.50
9083;DHT22;4577;48.704;9.000;2022-09-09T12:16:30;18.20;60.50
9083;DHT22;4577;48.704;9.000;2022-09-09T12:19:12;18.20;60.30
9083;DHT22;4577;48.704;9.000;2022-09-09T12:26:50;18.40;59.10
9083;DHT22;4577;48.704;9.000;2022-09-09T12:34:40;18.60;59.70
9083;DHT22;4577;48.704;9.000;2022-09-09T12:40:29;18.70;59.70
9083;DHT22;4577;48.704;9.000;2022-09-09T12:42:56;18.40;58.80
9083;DHT22;4577;48.704;9.000;2022-09-09T12:45:24;18.40;59.50
9083;DHT22;4577;48.704;9.000;2022-09-09T12:47:57;18.50;59.00
9083;DHT22;4577;48.704;9.000;2022-09-09T12:50:28;18.60;59.50
9083;DHT22;4577;48.704;9.000;2022-09-09T12:52:57;18.60;60.00
9083;DHT22;4577;48.704;9.000;2022-09-09T12:55:31;18.70;60.20
9083;DHT22;4577;48.704;9.000;2022-09-09T13:00:26;18.90;59.30
9083;DHT22;4577;48.704;9.000;2022-09-09T13:03:00;19.00;57.00
9083;DHT22;4577;48.704;9.000;2022-09-09T13:05:34;19.30;56.50
9083;DHT22;4577;48.704;9.000;2022-09-09T13:08:10;19.40;54.80
9083;DHT22;4577;48.704;9.000;2022-09-09T13:10:40;19.60;54.70
9083;DHT22;4577;48.704;9.000;2022-09-09T13:13:15;19.40;54.80
9083;DHT22;4577;48.704;9.000;2022-09-09T13:15:49;19.30;52.20
9083;DHT22;4577;48.704;9.000;2022-09-09T13:18:18;19.40;53.10
9083;DHT22;4577;48.704;9.000;2022-09-09T13:20:48;19.50;52.30
9083;DHT22;4577;48.704;9.000;2022-09-09T13:23:14;19.50;53.00
9083;DHT22;4577;48.704;9.000;2022-09-09T13:25:40;19.50;52.30
9083;DHT22;4577;48.704;9.000;2022-09-09T13:31:02;19.50;52.10
9083;DHT22;4577;48.704;9.000;2022-09-09T13:33:36;19.50;52.60
9083;DHT22;4577;48.704;9.000;2022-09-09T13:36:10;19.50;51.60
9083;DHT22;4577;48.704;9.000;2022-09-09T13:41:10;19.50;51.00
9083;DHT22;4577;48.704;9.000;2022-09-09T13:46:39;19.90;50.00
9083;DHT22;4577;48.704;9.000;2022-09-09T13:54:09;20.10;49.50
9083;DHT22;4577;48.704;9.000;2022-09-09T13:59:05;20.20;48.10
9083;DHT22;4577;48.704;9.000;2022-09-09T14:06:26;20.00;48.40
9083;DHT22;4577;48.704;9.000;2022-09-09T14:11:21;20.30;47.20
9083;DHT22;4577;48.704;9.000;2022-09-09T14:13:47;20.40;47.10
9083;DHT22;4577;48.704;9.000;2022-09-09T14:16:18;20.30;47.10
9083;DHT22;4577;48.704;9.000;2022-09-09T14:18:45;20.20;46.10
9083;DHT22;4577;48.704;9.000;2022-09-09T14:21:11;20.20;46.70
9083;DHT22;4577;48.704;9.000;2022-09-09T14:23:37;20.60;47.00
9083;DHT22;4577;48.704;9.000;2022-09-09T14:28:30;20.10;44.90
9083;DHT22;4577;48.704;9.000;2022-09-09T14:30:59;20.00;45.30
9083;DHT22;4577;48.704;9.000;2022-09-09T14:33:25;20.00;45.40
9083;DHT22;4577;48.704;9.000;2022-09-09T14:38:21;20.10;46.00
9083;DHT22;4577;48.704;9.000;2022-09-09T14:43:13;20.50;45.00
9083;DHT22;4577;48.704;9.000;2022-09-09T14:45:39;20.40;45.10
9083;DHT22;4577;48.704;9.000;2022-09-09T14:57:49;20.40;44.30
9083;DHT22;4577;48.704;9.000;2022-09-09T15:00:15;20.40;44.30
9083;DHT22;4577;48.704;9.000;2022-09-09T15:05:07;20.40;45.00
9083;DHT22;4577;48.704;9.000;2022-09-09T15:07:33;20.30;45.30
9083;DHT22;4577;48.704;9.000;2022-09-09T15:19:46;20.90;44.90
9083;DHT22;4577;48.704;9.000;2022-09-09T15:22:12;20.90;45.30
9083;DHT22;4577;48.704;9.000;2022-09-09T15:29:29;20.80;45.10
9083;DHT22;4577;48.704;9.000;2022-09-09T15:31:55;20.50;45.50
9083;DHT22;4577;48.704;9.000;2022-09-09T15:34:21;20.60;46.20
9083;DHT22;4577;48.704;9.000;2022-09-09T15:36:47;20.50;46.50
9083;DHT22;4577;48.704;9.000;2022-09-09T15:39:16;20.20;46.10
9083;DHT22;4577;48.704;9.000;2022-09-09T15:49:13;20.00;44.20
9083;DHT22;4577;48.704;9.000;2022-09-09T15:51:42;20.10;44.40
9083;DHT22;4577;48.704;9.000;2022-09-09T15:54:09;20.00;44.40
9083;DHT22;4577;48.704;9.000;2022-09-09T15:56:35;19.90;44.40
9083;DHT22;4577;48.704;9.000;2022-09-09T16:16:19;19.70;46.40
9083;DHT22;4577;48.704;9.000;2022-09-09T16:26:18;19.30;50.40
9083;DHT22;4577;48.704;9.000;2022-09-09T16:28:44;18.90;52.20
9083;DHT22;4577;48.704;9.000;2022-09-09T16:31:14;19.00;53.00
9083;DHT22;4577;48.704;9.000;2022-09-09T16:36:08;18.80;50.70
9083;DHT22;4577;48.704;9.000;2022-09-09T16:41:01;18.50;51.10
9083;DHT22;4577;48.704;9.000;2022-09-09T16:43:27;18.50;51.80
9083;DHT22;4577;48.704;9.000;2022-09-09T16:45:53;18.40;51.10
9083;DHT22;4577;48.704;9.000;2022-09-09T16:53:11;18.30;51.30
9083;DHT22;4577;48.704;9.000;2022-09-09T16:55:40;18.20;51.80
9083;DHT22;4577;48.704;9.000;2022-09-09T16:58:15;18.30;52.20
9083;DHT22;4577;48.704;9.000;2022-09-09T17:03:12;18.00;53.70
9083;DHT22;4577;48.704;9.000;2022-09-09T17:08:08;18.00;54.30
9083;DHT22;4577;48.704;9.000;2022-09-09T17:30:09;18.00;55.40
9083;DHT22;4577;48.704;9.000;2022-09-09T17:32:35;18.10;56.00
9083;DHT22;4577;48.704;9.000;2022-09-09T17:35:02;17.90;56.20
9083;DHT22;4577;48.704;9.000;2022-09-09T17:37:28;17.80;56.70
9083;DHT22;4577;48.704;9.000;2022-09-09T17:39:53;17.50;57.10
9083;DHT22;4577;48.704;9.000;2022-09-09T17:42:19;17.80;57.70
9083;DHT22;4577;48.704;9.000;2022-09-09T17:52:03;17.80;57.50
9083;DHT22;4577;48.704;9.000;2022-09-09T17:56:56;17.70;57.60
9083;DHT22;4577;48.704;9.000;2022-09-09T17:59:23;17.60;58.00
9083;DHT22;4577;48.704;9.000;2022-09-09T18:01:50;17.70;58.00
9083;DHT22;4577;48.704;9.000;2022-09-09T18:04:17;17.90;57.90
9083;DHT22;4577;48.704;9.000;2022-09-09T18:06:48;18.00;57.60
9083;DHT22;4577;48.704;9.000;2022-09-09T18:09:18;17.90;57.40
9083;DHT22;4577;48.704;9.000;2022-09-09T18:11:46;18.00;57.70
9083;DHT22;4577;48.704;9.000;2022-09-09T18:14:18;17.90;57.70
9083;DHT22;4577;48.704;9.000;2022-09-09T18:16:45;17.90;57.50
9083;DHT22;4577;48.704;9.000;2022-09-09T18:19:13;18.10;57.70
9083;DHT22;4577;48.704;9.000;2022-09-09T18:21:41;17.90;57.10
9083;DHT22;4577;48.704;9.000;2022-09-09T18:24:07;17.90;57.10
9083;DHT22;4577;48.704;9.000;2022-09-09T18:26:34;18.00;57.10
9083;DHT22;4577;48.704;9.000;2022-09-09T18:29:03;17.90;57.30
9083;DHT22;4577;48.704;9.000;2022-09-09T18:31:29;17.90;57.50
9083;DHT22;4577;48.704;9.000;2022-09-09T18:33:57;17.80;58.60
9083;DHT22;4577;48.704;9.000;2022-09-09T18:36:28;17.80;58.90
9083;DHT22;4577;48.704;9.000;2022-09-09T18:38:55;17.70;59.40
9083;DHT22;4577;48.704;9.000;2022-09-09T18:43:48;17.60;59.80
9083;DHT22;4577;48.704;9.000;2022-09-09T18:46:15;17.60;60.00
9083;DHT22;4577;48.704;9.000;2022-09-09T18:48:41;17.70;60.20
9083;DHT22;4577;48.704;9.000;2022-09-09T18:51:11;17.90;60.70
9083;DHT22;4577;48.704;9.000;2022-09-09T18:53:37;17.40;59.90
9083;DHT22;4577;48.704;9.000;2022-09-09T18:56:06;17.80;60.00
9083;DHT22;4577;48.704;9.000;2022-09-09T18:58:33;17.80;59.90
9083;DHT22;4577;48.704;9.000;2022-09-09T19:01:03;17.80;59.70
9083;DHT22;4577;48.704;9.000;2022-09-09T19:03:30;17.80;59.60
9083;DHT22;4577;48.704;9.000;2022-09-09T19:06:06;17.80;59.10
9083;DHT22;4577;48.704;9.000;2022-09-09T19:08:34;17.90;59.30
9083;DHT22;4577;48.704;9.000;2022-09-09T19:11:05;17.90;59.20
9083;DHT22;4577;48.704;9.000;2022-09-09T19:13:31;17.80;58.80
9083;DHT22;4577;48.704;9.000;2022-09-09T19:16:09;17.80;59.10
9083;DHT22;4577;48.704;9.000;2022-09-09T19:18:35;17.80;59.20
9083;DHT22;4577;48.704;9.000;2022-09-09T19:21:18;17.90;59.10
9083;DHT22;4577;48.704;9.000;2022-09-09T19:23:45;17.70;59.00
9083;DHT22;4577;48.704;9.000;2022-09-09T19:26:11;17.80;59.10
9083;DHT22;4577;48.704;9.000;2022-09-09T19:28:41;17.70;59.00
9083;DHT22;4577;48.704;9.000;2022-09-09T19:31:09;17.70;59.10
9083;DHT22;4577;48.704;9.000;2022-09-09T19:33:35;18.10;59.70
9083;DHT22;4577;48.704;9.000;2022-09-09T19:36:04;17.10;59.10
9083;DHT22;4577;48.704;9.000;2022-09-09T19:38:31;17.60;59.60
9083;DHT22;4577;48.704;9.000;2022-09-09T19:41:04;17.70;59.90
9083;DHT22;4577;48.704;9.000;2022-09-09T19:43:32;17.70;59.90
9083;DHT22;4577;48.704;9.000;2022-09-09T19:46:08;17.60;60.00
9083;DHT22;4577;48.704;9.000;2022-09-09T19:48:37;17.60;60.10
9083;DHT22;4577;48.704;9.000;2022-09-09T19:51:04;17.50;60.30
9083;DHT22;4577;48.704;9.000;2022-09-09T19:53:31;17.50;60.40
9083;DHT22;4577;48.704;9.000;2022-09-09T19:55:57;17.20;60.40
9083;DHT22;4577;48.704;9.000;2022-09-09T19:58:23;17.40;60.60
9083;DHT22;4577;48.704;9.000;2022-09-09T20:00:48;17.40;60.90
9083;DHT22;4577;48.704;9.000;2022-09-09T20:03:14;17.40;60.90
9083;DHT22;4577;48.704;9.000;2022-09-09T20:12:58;17.40;60.70
9083;DHT22;4577;48.704;9.000;2022-09-09T20:15:25;17.30;60.60
9083;DHT22;4577;48.704;9.000;2022-09-09T20:17:51;17.20;60.40
9083;DHT22;4577;48.704;9.000;2022-09-09T20:20:17;17.20;60.90
9083;DHT22;4577;48.704;9.000;2022-09-09T20:22:44;17.30;60.70
9083;DHT22;4577;48.704;9.000;2022-09-09T20:25:09;17.20;60.80
9083;DHT22;4577;48.704;9.000;2022-09-09T20:27:35;16.60;60.80
9083;DHT22;4577;48.704;9.000;2022-09-09T20:32:27;17.00;61.10
9083;DHT22;4577;48.704;9.000;2022-09-09T20:34:53;17.10;61.30
9083;DHT22;4577;48.704;9.000;2022-09-09T20:39:45;16.80;61.70
9083;DHT22;4577;48.704;9.000;2022-09-09T20:42:11;16.80;61.80
9083;DHT22;4577;48.704;9.000;2022-09-09T20:44:37;16.80;61.50
9083;DHT22;4577;48.704;9.000;2022-09-09T20:47:03;16.80;61.60
9083;DHT22;4577;48.704;9.000;2022-09-09T20:49:31;16.80;61.80
9083;DHT22;4577;48.704;9.000;2022-09-09T20:52:00;16.80;61.50
9083;DHT22;4577;48.704;9.000;2022-09-09T20:54:27;16.80;61.40
9083;DHT22;4577;48.704;9.000;2022-09-09T20:56:56;16.90;61.60
9083;DHT22;4577;48.704;9.000;2022-09-09T20:59:26;16.70;61.50
9083;DHT22;4577;48.704;9.000;2022-09-09T21:01:52;16.80;61.60
9083;DHT22;4577;48.704;9.000;2022-09-09T21:04:20;16.90;61.60
9083;DHT22;4577;48.704;9.000;2022-09-09T21:06:47;16.90;61.50
9083;DHT22;4577;48.704;9.000;2022-09-09T21:09:14;17.00;61.40
9083;DHT22;4577;48.704;9.000;2022-09-09T21:11:40;16.90;61.60
9083;DHT22;4577;48.704;9.000;2022-09-09T21:14:06;17.40;62.10
9083;DHT22;4577;48.704;9.000;2022-09-09T21:16:32;16.90;61.40
9083;DHT22;4577;48.704;9.000;2022-09-09T21:21:24;16.80;61.90
9083;DHT22;4577;48.704;9.000;2022-09-09T21:23:55;16.80;61.80
9083;DHT22;4577;48.704;9.000;2022-09-09T21:26:22;16.90;61.70
9083;DHT22;4577;48.704;9.000;2022-09-09T21:28:48;16.80;61.50
9083;DHT22;4577;48.704;9.000;2022-09-09T21:31:15;16.60;61.80
9083;DHT22;4577;48.704;9.000;2022-09-09T21:33:41;16.70;61.90
9083;DHT22;4577;48.704;9.000;2022-09-09T21:36:09;16.70;62.10
9083;DHT22;4577;48.704;9.000;2022-09-09T21:38:35;16.70;62.20
9083;DHT22;4577;48.704;9.000;2022-09-09T21:41:03;16.80;62.40
9083;DHT22;4577;48.704;9.000;2022-09-09T21:43:29;17.10;62.30
9083;DHT22;4577;48.704;9.000;2022-09-09T21:45:55;16.70;62.30
9083;DHT22;4577;48.704;9.000;2022-09-09T21:48:21;16.80;62.30
9083;DHT22;4577;48.704;9.000;2022-09-09T21:50:48;16.80;62.50
9083;DHT22;4577;48.704;9.000;2022-09-09T21:53:15;16.80;62.50
9083;DHT22;4577;48.704;9.000;2022-09-09T21:55:43;16.80;62.90
9083;DHT22;4577;48.704;9.000;2022-09-09T21:58:11;16.50;62.80
9083;DHT22;4577;48.704;9.000;2022-09-09T22:00:44;16.50;63.30
9083;DHT22;4577;48.704;9.000;2022-09-09T22:03:14;16.50;63.50
9083;DHT22;4577;48.704;9.000;2022-09-09T22:05:42;16.10;63.30
9083;DHT22;4577;48.704;9.000;2022-09-09T22:08:10;16.50;63.80
9083;DHT22;4577;48.704;9.000;2022-09-09T22:10:37;16.50;63.60
9083;DHT22;4577;48.704;9.000;2022-09-09T22:13:04;16.60;63.60
9083;DHT22;4577;48.704;9.000;2022-09-09T22:15:30;16.50;64.00
9083;DHT22;4577;48.704;9.000;2022-09-09T22:17:59;16.70;64.10
9083;DHT22;4577;48.704;9.000;2022-09-09T22:20:31;16.60;64.10
9083;DHT22;4577;48.704;9.000;2022-09-09T22:23:00;16.60;64.20
9083;DHT22;4577;48.704;9.000;2022-09-09T22:25:27;16.50;64.40
9083;DHT22;4577;48.704;9.000;2022-09-09T22:27:52;16.70;64.60
9083;DHT22;4577;48.704;9.000;2022-09-09T22:32:44;16.50;64.50
9083;DHT22;4577;48.704;9.000;2022-09-09T22:35:10;16.80;65.10
9083;DHT22;4577;48.704;9.000;2022-09-09T22:37:37;16.50;64.70
9083;DHT22;4577;48.704;9.000;2022-09-09T22:40:03;16.50;64.70
9083;DHT22;4577;48.704;9.000;2022-09-09T22:44:54;16.50;65.00
9083;DHT22;4577;48.704;9.000;2022-09-09T22:47:20;16.40;65.40
9083;DHT22;4577;48.704;9.000;2022-09-09T22:52:12;16.20;66.80
9083;DHT22;4577;48.704;9.000;2022-09-09T22:54:40;15.70;68.60
9083;DHT22;4577;48.704;9.000;2022-09-09T22:57:06;15.60;71.00
9083;DHT22;4577;48.704;9.000;2022-09-09T23:02:01;15.20;77.60
9083;DHT22;4577;48.704;9.000;2022-09-09T23:06:53;15.00;85.40
9083;DHT22;4577;48.704;9.000;2022-09-09T23:11:44;15.40;88.60
9083;DHT22;4577;48.704;9.000;2022-09-09T23:14:12;15.50;89.70
9083;DHT22;4577;48.704;9.000;2022-09-09T23:16:42;15.70;90.90
9083;DHT22;4577;48.704;9.000;2022-09-09T23:19:12;15.70;89.30
9083;DHT22;4577;48.704;9.000;2022-09-09T23:21:41;15.80;88.40
9083;DHT22;4577;48.704;9.000;2022-09-09T23:24:09;15.80;88.60
9083;DHT22;4577;48.704;9.000;2022-09-09T23:26:36;16.00;89.10
9083;DHT22;4577;48.704;9.000;2022-09-09T23:31:34;15.90;87.00
9083;DHT22;4577;48.704;9.000;2022-09-09T23:34:03;15.70;87.70
9083;DHT22;4577;48.704;9.000;2022-09-09T23:36:29;15.80;88.20
9083;DHT22;4577;48.704;9.000;2022-09-09T23:39:00;15.60;87.60
9083;DHT22;4577;48.704;9.000;2022-09-09T23:41:28;15.60;87.20
9083;DHT22;4577;48.704;9.000;2022-09-09T23:46:23;15.70;85.30
9083;DHT22;4577;48.704;9.000;2022-09-09T23:48:49;15.70;86.30
9083;DHT22;4577;48.704;9.000;2022-09-09T23:51:17;15.90;85.10
9083;DHT22;4577;48.704;9.000;2022-09-09T23:53:46;15.80;84.70
9083;DHT22;4577;48.704;9.000;2022-09-09T23:56:17;15.70;83.50
9083;DHT22;4577;48.704;9.000;2022-09-09T23:58:43;15.80;84.30
